Tuesday, May 24, 2016
17:39 UTC
  |  Log In   |  Register Free
Airport Search:

Newnan Coweta County Airport
(KCCO)

Newnan Coweta County Airport Diagram
No Airport Diagram Available

FAA data valid effective Mar 31 2016 - May 26 2016 (unless otherwise noted).

 
 
 
 
 
 
 
 
 
 
 
 
 
 
Current Aviation Weather for KCCO

Weather Summary


The most recent METAR observation for CCO was updated at: 12:55 UTC
METAR for KCCO is not available. Closest METAR is for KFFC
KCCO  (most recent observation was updatred at 24:17 UTC)
241715Z AUTO 36003KT 10SM SCT065 28/11 A3017 RMK AO2 T02780113

KFFC  (10.3 nm SW)   (most recent observation was updated at 24:16 UTC)
241653Z AUTO VRB03KT 10SM CLR 27/09 A3017 RMK AO2 SLP212 T02720094

KLGC  (23.7 nm NE)   (most recent observation was updated at 24:17 UTC)
241715Z AUTO 30006KT 10SM CLR 28/13 A3017 RMK AO2 T02830134

TAF for KCCO is not available.
KATL  (26.0 nm SW)   (most recent observation was updatred at 24:16 UTC)
AMD 241602Z 2416/2518 29005KT P6SM SCT250 FM241800 25007KT P6SM FEW050 FM250000 22004KT P6SM FEW250 FM251500 21005KT P6SM FEW040


KFTY  (30.7 nm SW)   (most recent observation was updatred at 24:16 UTC)
AMD 241607Z 2416/2512 32004KT P6SM SCT250 FM241700 29005KT P6SM FEW050 FM241900 26007KT P6SM FEW060 FM242300 23004KT P6SM SKC


GlobalAir.com is loading additional information.
 Current Weather at CCO
79.0 F° (26.0 C°)

North winds at 0.0 mph
Pressure:
30.18 in
Humidity:
48%
Wind:
North at 0.0 mph
Dew Point:
57.6 F° (14.2 C°)
Visibility:
10.00 mi
CCO NOAA Radar




Find All Airport Services Find A Hotel Find A Rental Car Find A Golf Course Find A Restaurant $100 Hamburger



Airport Weather Forecast for KCCO

Translated METAR for KCCO (1715 UTC)
METAR:
KCCO 241715Z AUTO 36003KT 10SM SCT065 28/11 A3017 RMK AO2 T02780113
Conditions at:
KCCO (Newnan Coweta County, GA) observed 1715 UTC 24 May 2016
Temperature:
28°C (82.4°F)
Dewpoint:
11°C (51.8°F) [RH = 34.7]
Pressure:
30.17 inches Hg (1021.7 mb)
Winds:
from the N (360 degrees) at 3.5 mph (3 knots: 1.5 m/s)
Visibility:
10 mile(s)
Ceiling:
at least 12,000 feet AGL
Clouds:
Scattered Clouds at 6,500 feet AGL
Remarks:
site is un-manned
site is automated and HAS a precipitation sensor

Translated TAF for KATL (Hartsfield - Jackson Atlanta Intl, GA) (1602 UTC)
TAF text:
KATL 241602Z 2416/2518 29005KT P6SM SCT250
Forecast period:
Tuesday May 24 2016 16:00 UTC - Wednesday May 25 2016 18:00 UTC
Forecast type:
FROM: standard forecast or significant change
Winds:
from the WNW (290 degrees) at 5.8 mph (5 knots: 2.6 m/s)
Visibility:
6 or more mile(s) (9.7+ km)
Ceiling:
at least 12,000 feet AGL
Clouds:
Scattered Clouds at 25,000 feet AGL
Weather:
no significant weather observed at this time
TAF text:
FM241800 25007KT P6SM FEW050
Forecast period:
Tuesday May 24 2016 18:00 UTC - Wednesday May 25 2016 00:00 UTC
Forecast type:
FROM: standard forecast or significant change
Winds:
from the WSW (250 degrees) at 8.1 mph (7 knots: 3.6 m/s)
Visibility:
6 or more mile(s) (9.7+ km)
Ceiling:
at least 12,000 feet AGL
Clouds:
Few Clouds at 5,000 feet AGL
Weather:
no significant weather observed at this time
TAF text:
FM250000 22004KT P6SM FEW250
Forecast period:
Wednesday May 25 2016 00:00 UTC - Wednesday May 25 2016 15:00 UTC
Forecast type:
FROM: standard forecast or significant change
Winds:
from the SW (220 degrees) at 4.6 mph (4 knots: 2.1 m/s)
Visibility:
6 or more mile(s) (9.7+ km)
Ceiling:
at least 12,000 feet AGL
Clouds:
Few Clouds at 25,000 feet AGL
Weather:
no significant weather observed at this time
TAF text:
FM251500 21005KT P6SM FEW040
Forecast period:
Wednesday May 25 2016 15:00 UTC - Wednesday May 25 2016 18:00 UTC
Forecast type:
FROM: standard forecast or significant change
Winds:
from the SSW (210 degrees) at 5.8 mph (5 knots: 2.6 m/s)
Visibility:
6 or more mile(s) (9.7+ km)
Ceiling:
at least 12,000 feet AGL
Clouds:
Few Clouds at 4,000 feet AGL
Weather:
no significant weather observed at this time
FBO's on the Field
FBO Company Facility Photos Services Transportation Aviation Fuel Prices: Prices include tax
Catering Weather Repair Courtesy Rental Type 100LL JetA JetA+ MOGAS 8087
 
CCO Airport Services

This FBO has not yet been rated
FS:Shell
Last Updated: May-13
Login to update fuel prices
SS:
Contact CCO Airport ServicesMore FBO Information
 
Add another FBO Facility Photos Catering Weather Repair Courtesy Rental Type 100LL JetA JetA+ MOGAS 8087
Services Transportation Aviation Fuel Prices: Prices include tax


model-print
model-print
model-print
model-print